Date,TemperatureHighF,TemperatureAvgF,TemperatureLowF,DewpointHighF,DewpointAvgF,DewpointLowF,HumidityHigh,HumidityAvg,HumidityLow,PressureMaxIn,PressureMinIn,WindSpeedMaxMPH,WindSpeedAvgMPH,GustSpeedMaxMPH,PrecipitationSumIn
2013-2-1,53,44,33,38,23,11,65,46,24,30.43,30.05,0,0,0,0.00
2013-2-2,49,38,28,45,25,13,88,61,34,30.46,30.07,0,0,0,0.00
2013-2-3,54,46,41,44,36,31,85,69,46,30.07,29.89,0,0,0,0.00
2013-2-4,49,43,34,41,31,25,75,63,44,30.20,30.03,0,0,0,0.00
2013-2-5,56,51,45,50,45,38,92,80,71,30.09,29.93,0,0,0,0.00
2013-2-6,63,52,46,50,47,41,93,83,44,30.29,30.01,0,0,0,0.00
2013-2-7,60,52,47,54,49,44,97,89,74,30.31,29.88,0,0,0,1.09
2013-2-8,58,52,47,58,49,43,98,88,77,30.02,29.51,0,0,0,0.59
2013-2-9,53,45,40,41,30,24,76,56,36,30.41,30.03,0,0,0,0.00
2013-2-10,54,46,36,47,38,30,90,75,55,30.51,30.34,0,0,0,0.00
2013-2-11,59,57,50,58,55,47,98,94,88,30.36,29.99,0,0,0,0.10
2013-2-12,60,56,52,56,52,43,98,88,59,30.11,29.99,0,0,0,0.05
2013-2-13,55,52,48,55,50,47,98,96,92,30.04,29.68,0,0,0,0.43
2013-2-14,52,48,42,49,42,38,91,79,65,30.14,29.84,0,0,0,0.00
2013-2-15,56,49,40,45,42,39,93,79,63,30.14,30.00,0,0,0,0.00
2013-2-16,54,44,34,47,40,33,95,88,73,30.00,29.73,0,0,0,0.19
2013-2-17,38,34,31,33,23,15,95,66,39,30.33,29.89,0,0,0,0.01
2013-2-18,52,39,29,41,24,16,69,56,37,30.50,30.34,0,0,0,0.00
2013-2-19,58,54,51,54,50,42,95,88,70,30.35,29.96,0,0,0,0.18
2013-2-20,57,48,41,45,34,19,92,62,23,30.16,29.99,0,0,0,0.00
2013-2-21,55,45,34,40,31,23,75,60,33,30.29,30.12,0,0,0,0.00
2013-2-22,52,44,39,50,38,29,94,77,64,30.37,30.12,0,0,0,0.01
2013-2-23,61,51,47,61,50,46,98,97,93,30.11,29.86,0,0,0,0.46
2013-2-24,60,51,46,54,49,46,99,94,75,30.04,29.81,0,0,0,0.01
2013-2-25,50,43,38,48,37,33,96,79,68,30.23,30.04,0,0,0,0.00
2013-2-26,62,54,42,62,52,37,99,94,81,30.13,29.65,0,0,0,0.60
2013-2-27,57,53,49,54,48,43,98,85,66,29.85,29.66,0,0,0,0.01
2013-2-28,58,50,44,49,41,34,90,71,53,29.88,29.73,0,0,0,0.00